SoundGuardian — WDI8675 — position and weather

sailwx.info

Track history (hours):
 
Tides and Currents Weather Stations Pressure Air Temp Water Temp Dewpoint Dewpoint Depression Visibility Wind Speed Wind Dir Waves Ship Positions

Oceanographic research ship SoundGuardian (United States)

Owner: King County Environmental Laboratory, Seattle, WA. More information available from US FCC via Universal Licensing System and Coast Guard Vessel Documentation Center.

Last reported at 2019-Oct-14 21:15 UTC. Time now 2019-Oct-17 18:43 UTC.
Position N 47°39' W 122°22'.

Length 13 m; draft 1 m.

Type: Other ship. MMSI: 367741020.

Date/timePositionNaut miles runAvg speedWind from/ knotsBaromVisibWave heightAir tempDewpointWater temp
2019-Oct-14 21:15N 47°39' W 122°22'1 3.3
2019-Oct-14 21:00N 47°39' W 122°21'0 0.4
2019-Oct-14 20:30N 47°39' W 122°20'3 5.3
2019-Oct-14 20:00N 47°39' W 122°17'815.3
2019-Oct-14 19:29N 47°31' W 122°13'511.3
2019-Oct-14 19:00N 47°36' W 122°15'1 2.4
2019-Oct-14 18:30N 47°37' W 122°16'1 1.9
2019-Oct-14 18:00N 47°38' W 122°16'610.8
2019-Oct-14 17:29N 47°44' W 122°16'3 6.0
2019-Oct-14 16:59N 47°41' W 122°14'3 6.0
2019-Oct-14 16:30N 47°39' W 122°16'2 4.5
2019-Oct-14 16:01N 47°39' W 122°20'1 1.7
2019-Oct-14 15:30N 47°38' W 122°20'2 4.3
2019-Oct-14 15:01N 47°40' W 122°22'0 0.7
2019-Oct-14 14:31N 47°39' W 122°22'0 0.5
2019-Oct-14 14:00N 47°39' W 122°22'0 0.0
2019-Oct-14 13:31N 47°39' W 122°22'  
2019-Oct-10 21:17N 47°39' W 122°22'1 5.1
2019-Oct-10 21:00N 47°40' W 122°24'510.4
2019-Oct-10 20:30N 47°45' W 122°27'4111.7
2019-Oct-10 17:01N 48°24' W 122°40'028.3
2019-Oct-10 17:00N 48°24' W 122°39'3124.4
2019-Oct-10 15:45N 47°56' W 122°21'625.6
2019-Oct-10 15:30N 47°50' W 122°24'1020.5
2019-Oct-10 15:01N 47°40' W 122°24'1 1.9
2019-Oct-10 14:30N 47°40' W 122°23'1 0.0
2019-Oct-08 21:45N 47°39' W 122°22'1 4.7
2019-Oct-08 21:30N 47°40' W 122°23'2 4.9
2019-Oct-08 21:01N 47°39' W 122°27'1121.5
2019-Oct-08 20:31N 47°29' W 122°24'714.7
2019-Oct-08 20:00N 47°21' W 122°23'0 0.1
2019-Oct-08 19:31N 47°22' W 122°23'510.4
2019-Oct-08 19:00N 47°27' W 122°25'4 7.3
2019-Oct-08 18:31N 47°30' W 122°26'2 3.7
2019-Oct-08 18:00N 47°32' W 122°26'0 0.0
2019-Oct-08 17:30N 47°32' W 122°26'2 3.0
2019-Oct-08 17:00N 47°31' W 122°24'0 0.6
2019-Oct-08 16:30N 47°32' W 122°24'0 0.8
2019-Oct-08 16:00N 47°32' W 122°24'4 8.1
2019-Oct-08 15:30N 47°36' W 122°26'0 0.1
2019-Oct-08 15:00N 47°36' W 122°26'4 7.9
2019-Oct-08 14:30N 47°40' W 122°24'2 3.2
2019-Oct-08 14:00N 47°39' W 122°22'0 0.0
2019-Oct-07 20:23N 47°39' W 122°22'2 4.4
2019-Oct-07 20:00N 47°40' W 122°24'3 5.3
2019-Oct-07 19:31N 47°37' W 122°24'2 4.3
2019-Oct-07 19:00N 47°36' W 122°21'3 5.3
2019-Oct-07 18:30N 47°38' W 122°24'3 5.5
2019-Oct-07 18:01N 47°40' W 122°27'612.5
2019-Oct-07 17:31N 47°46' W 122°25'1 1.3
2019-Oct-07 17:00N 47°47' W 122°25'2 4.2
2019-Oct-07 16:30N 47°45' W 122°26'0 0.2
2019-Oct-07 16:00N 47°45' W 122°26'0 0.1
2019-Oct-07 15:30N 47°45' W 122°26'0 0.1
2019-Oct-07 15:01N 47°45' W 122°26'2 4.9
2019-Oct-07 14:30N 47°43' W 122°23'3 5.8
2019-Oct-07 14:01N 47°40' W 122°23'1 2.6
2019-Oct-07 13:31N 47°39' W 122°22'  
Track history (hours):
 
Tides and Currents Weather Stations Pressure Air Temp Water Temp Dewpoint Dewpoint Depression Visibility Wind Speed Wind Dir Waves Ship Positions

Oceanographic research ship SoundGuardian (United States)

Owner: King County Environmental Laboratory, Seattle, WA. More information available from US FCC via Universal Licensing System and Coast Guard Vessel Documentation Center.

Last reported at 2019-Oct-14 21:15 UTC. Time now 2019-Oct-17 18:43 UTC.
Position N 47°39' W 122°22'.

Length 13 m; draft 1 m.

Type: Other ship. MMSI: 367741020.

Date/timePositionNaut miles runAvg speedWind from/ knotsBaromVisibWave heightAir tempDewpointWater temp
2019-Oct-14 21:15N 47°39' W 122°22'1 3.3
2019-Oct-14 21:00N 47°39' W 122°21'0 0.4
2019-Oct-14 20:30N 47°39' W 122°20'3 5.3
2019-Oct-14 20:00N 47°39' W 122°17'815.3
2019-Oct-14 19:29N 47°31' W 122°13'511.3
2019-Oct-14 19:00N 47°36' W 122°15'1 2.4
2019-Oct-14 18:30N 47°37' W 122°16'1 1.9
2019-Oct-14 18:00N 47°38' W 122°16'610.8
2019-Oct-14 17:29N 47°44' W 122°16'3 6.0
2019-Oct-14 16:59N 47°41' W 122°14'3 6.0
2019-Oct-14 16:30N 47°39' W 122°16'2 4.5
2019-Oct-14 16:01N 47°39' W 122°20'1 1.7
2019-Oct-14 15:30N 47°38' W 122°20'2 4.3
2019-Oct-14 15:01N 47°40' W 122°22'0 0.7
2019-Oct-14 14:31N 47°39' W 122°22'0 0.5
2019-Oct-14 14:00N 47°39' W 122°22'0 0.0
2019-Oct-14 13:31N 47°39' W 122°22'  
2019-Oct-10 21:17N 47°39' W 122°22'1 5.1
2019-Oct-10 21:00N 47°40' W 122°24'510.4
2019-Oct-10 20:30N 47°45' W 122°27'4111.7
2019-Oct-10 17:01N 48°24' W 122°40'028.3
2019-Oct-10 17:00N 48°24' W 122°39'3124.4
2019-Oct-10 15:45N 47°56' W 122°21'625.6
2019-Oct-10 15:30N 47°50' W 122°24'1020.5
2019-Oct-10 15:01N 47°40' W 122°24'1 1.9
2019-Oct-10 14:30N 47°40' W 122°23'1 0.0
2019-Oct-08 21:45N 47°39' W 122°22'1 4.7
2019-Oct-08 21:30N 47°40' W 122°23'2 4.9
2019-Oct-08 21:01N 47°39' W 122°27'1121.5
2019-Oct-08 20:31N 47°29' W 122°24'714.7
2019-Oct-08 20:00N 47°21' W 122°23'0 0.1
2019-Oct-08 19:31N 47°22' W 122°23'510.4
2019-Oct-08 19:00N 47°27' W 122°25'4 7.3
2019-Oct-08 18:31N 47°30' W 122°26'2 3.7
2019-Oct-08 18:00N 47°32' W 122°26'0 0.0
2019-Oct-08 17:30N 47°32' W 122°26'2 3.0
2019-Oct-08 17:00N 47°31' W 122°24'0 0.6
2019-Oct-08 16:30N 47°32' W 122°24'0 0.8
2019-Oct-08 16:00N 47°32' W 122°24'4 8.1
2019-Oct-08 15:30N 47°36' W 122°26'0 0.1
2019-Oct-08 15:00N 47°36' W 122°26'4 7.9
2019-Oct-08 14:30N 47°40' W 122°24'2 3.2
2019-Oct-08 14:00N 47°39' W 122°22'0 0.0
2019-Oct-07 20:23N 47°39' W 122°22'2 4.4
2019-Oct-07 20:00N 47°40' W 122°24'3 5.3
2019-Oct-07 19:31N 47°37' W 122°24'2 4.3
2019-Oct-07 19:00N 47°36' W 122°21'3 5.3
2019-Oct-07 18:30N 47°38' W 122°24'3 5.5
2019-Oct-07 18:01N 47°40' W 122°27'612.5
2019-Oct-07 17:31N 47°46' W 122°25'1 1.3
2019-Oct-07 17:00N 47°47' W 122°25'2 4.2
2019-Oct-07 16:30N 47°45' W 122°26'0 0.2
2019-Oct-07 16:00N 47°45' W 122°26'0 0.1
2019-Oct-07 15:30N 47°45' W 122°26'0 0.1
2019-Oct-07 15:01N 47°45' W 122°26'2 4.9
2019-Oct-07 14:30N 47°43' W 122°23'3 5.8
2019-Oct-07 14:01N 47°40' W 122°23'1 2.6
2019-Oct-07 13:31N 47°39' W 122°22'  

Dump ship's entire track history